Strona główna
METAR-TAF:

METAR-TAF

Lotnisko :

Port lotniczy Kerteh

Kerteh, Malezja

Szerokość geograficzna: 04-32-15N, Długość geograficzna: 103-25-36E, wysokość: 5 m

Aktualna obserwacja pogody

Raport powstał 6 godziny i 54 minut temu, godzina 16:00 UTC
Cisza
Temperatura 26°C
Wilgotność 94%
Ciśnienie 1012 hPa

METAR: WMKE 061600Z AUTO 00000KT //// // ////// 26/25 Q1012

czas: 06:54 (22:54 UTC)

Prognoza

Raport powstał 5 godziny i 54 minut temu, godzina 17:00 UTC
Prognoza ważna od 06 godzina 18 UTC do 07 godzina 18 UTC
Wiatr 3 kt z kierunków zmiennych
Widzialność 10 km lub więcej
Rozproszone chmury na wysokości 1500 ft
Stopniowe zmiany
od 07 godzina 04 UTC do 07 godzina 06 UTC
Wiatr 6 kt od wschód
Mało chmury na wysokości 1400 ft
Stopniowe zmiany
od 07 godzina 11 UTC do 07 godzina 12 UTC
Wiatr 3 kt z kierunków zmiennych
Mało chmury na wysokości 1500 ft

TAF: WMKE 061700Z 0618/0718 VRB03KT 9999 SCT015 BECMG 0704/0706 09006KT FEW014 BECMG 0711/0712 VRB03KT FEW015

Obserwacja i prognoza pogody dla ponad 4000 lotnisk (raport METAR i TAF).

Dostępne stacje oznaczono żółtymi i czerwonymi punktami na mapie.

Najedź kursorem aby zobaczyć nazwę stacji.

Kliknij aby zobaczyć obserwacje i prognozy pogody.

Aby zmienić mapę: kliknij na zielony przycisk z czarnym krzyżykiem, aby powiększyć; na zielony przycisk z myślnikiem, aby pomniejszyć; na zielone strzałki, aby przejść do map sąsiednich.


METAR-TAF: